createdAt,value
2022-10-01T00:00:21.113Z,82.71
2022-10-01T00:01:21.157Z,82.73
2022-10-01T00:02:21.129Z,82.94
2022-10-01T00:03:21.143Z,82.91
2022-10-01T00:04:21.125Z,83.27
2022-10-01T00:05:21.129Z,83.39
2022-10-01T00:06:21.133Z,83.49
2022-10-01T00:07:21.131Z,83.63
2022-10-01T00:08:21.135Z,83.59
2022-10-01T00:09:21.132Z,83.78
2022-10-01T00:10:21.132Z,83.74
2022-10-01T00:11:21.130Z,83.88
2022-10-01T00:12:21.115Z,84.15
2022-10-01T00:13:21.140Z,84.27
2022-10-01T00:14:21.133Z,84.34
2022-10-01T00:15:21.122Z,84.5
2022-10-01T00:16:21.154Z,84.59
2022-10-01T00:17:21.131Z,84.69
2022-10-01T00:18:21.121Z,84.91
2022-10-01T00:19:21.141Z,84.71
2022-10-01T00:20:21.129Z,84.7
2022-10-01T00:21:21.237Z,84.77
2022-10-01T00:22:21.131Z,84.75
2022-10-01T00:23:21.132Z,84.45
2022-10-01T00:24:21.122Z,84.61
2022-10-01T00:25:21.116Z,84.77
2022-10-01T00:26:21.131Z,84.97
2022-10-01T00:27:21.127Z,85.1
2022-10-01T00:28:21.287Z,84.68
2022-10-01T00:29:21.130Z,84.83
2022-10-01T00:30:21.555Z,84.87
2022-10-01T00:31:21.619Z,84.91
2022-10-01T00:32:21.150Z,84.96
2022-10-01T00:33:21.596Z,84.79
2022-10-01T00:34:21.422Z,84.71
2022-10-01T00:35:21.693Z,84.61
2022-10-01T00:36:21.633Z,84.62
2022-10-01T00:37:22.612Z,84.36
2022-10-01T00:38:22.132Z,84.63
2022-10-01T00:39:22.300Z,84.69
2022-10-01T00:40:21.715Z,84.56
2022-10-01T00:41:21.270Z,84.4
2022-10-01T00:42:21.119Z,84.21
2022-10-01T00:43:21.121Z,84.44
2022-10-01T00:44:21.259Z,84.4
2022-10-01T00:45:21.142Z,84.12
2022-10-01T00:46:21.255Z,84.36
2022-10-01T00:47:21.112Z,84.18
2022-10-01T00:48:21.133Z,83.94
2022-10-01T00:49:21.130Z,84.1
2022-10-01T00:50:21.124Z,84.13
2022-10-01T00:51:21.113Z,84.21
2022-10-01T00:52:21.126Z,84.07
2022-10-01T00:53:21.177Z,83.86
2022-10-01T00:54:21.167Z,83.84
2022-10-01T00:55:21.143Z,83.98
2022-10-01T00:56:21.110Z,83.99
2022-10-01T00:57:21.121Z,84.09
2022-10-01T00:58:21.120Z,84.04
2022-10-01T00:59:21.130Z,84.05
2022-10-01T01:00:21.139Z,83.85
2022-10-01T01:01:21.184Z,84.03
2022-10-01T01:02:21.167Z,83.8
2022-10-01T01:03:21.134Z,83.76
2022-10-01T01:04:21.123Z,83.41
2022-10-01T01:05:21.129Z,83.43
2022-10-01T01:06:21.124Z,83.13
2022-10-01T01:07:21.116Z,83.46
2022-10-01T01:08:21.114Z,83.44
2022-10-01T01:09:21.121Z,83.63
2022-10-01T01:10:22.126Z,83.45
2022-10-01T01:11:21.147Z,83.57
2022-10-01T01:12:21.142Z,83.42
2022-10-01T01:13:21.135Z,83.18
2022-10-01T01:14:21.127Z,83.33
2022-10-01T01:15:21.235Z,83.8
2022-10-01T01:16:21.148Z,83.89
2022-10-01T01:17:21.138Z,84.07
2022-10-01T01:18:21.124Z,84.15
2022-10-01T01:19:21.128Z,84.43
2022-10-01T01:20:21.134Z,84.48
2022-10-01T01:21:21.120Z,84.46
2022-10-01T01:22:21.123Z,84.59
2022-10-01T01:23:21.114Z,84.61
2022-10-01T01:24:21.138Z,84.5
2022-10-01T01:25:21.164Z,84.25
2022-10-01T01:26:21.243Z,84
2022-10-01T01:27:21.130Z,83.6
2022-10-01T01:28:21.148Z,83.07
2022-10-01T01:29:21.097Z,82.92
2022-10-01T01:30:21.135Z,82.95
2022-10-01T01:31:21.218Z,83.03
2022-10-01T01:32:21.129Z,83.09
2022-10-01T01:33:21.184Z,83.09
2022-10-01T01:34:21.110Z,83.48
2022-10-01T01:35:21.373Z,83.52
2022-10-01T01:36:21.256Z,83.49
2022-10-01T01:37:21.304Z,83.18
2022-10-01T01:38:21.306Z,83.27
2022-10-01T01:39:21.119Z,82.73
2022-10-01T01:40:21.121Z,82.43
2022-10-01T01:41:21.116Z,82.31
2022-10-01T01:42:21.111Z,82.03
2022-10-01T01:43:21.107Z,82
2022-10-01T01:44:21.208Z,82.31
2022-10-01T01:45:21.196Z,82.46
2022-10-01T01:46:21.278Z,82.75
2022-10-01T01:47:21.119Z,82.79
2022-10-01T01:48:21.092Z,82.92
2022-10-01T01:49:21.378Z,83.06
2022-10-01T01:50:21.443Z,83.2
2022-10-01T01:51:21.915Z,83.12
2022-10-01T01:52:21.035Z,83.31
2022-10-01T01:53:21.275Z,82.95
2022-10-01T01:54:21.554Z,83.37
2022-10-01T01:55:21.357Z,83.3
2022-10-01T01:56:21.672Z,83.5
2022-10-01T01:57:22.651Z,84.01
2022-10-01T01:58:22.344Z,84.27
2022-10-01T01:59:21.188Z,84.58
2022-10-01T02:00:21.313Z,84.99
2022-10-01T02:01:21.127Z,84.99
2022-10-01T02:02:21.262Z,85.21
2022-10-01T02:03:21.117Z,85.17
2022-10-01T02:04:21.234Z,85.5
2022-10-01T02:05:21.558Z,86.1
2022-10-01T02:06:21.159Z,86.4
2022-10-01T02:07:22.236Z,87.09
2022-10-01T02:08:21.508Z,87.48
2022-10-01T02:09:21.317Z,87.74
2022-10-01T02:10:21.492Z,88.01
2022-10-01T02:11:21.508Z,88.22
2022-10-01T02:12:21.739Z,89.48
2022-10-01T02:13:21.963Z,90.85
2022-10-01T02:14:21.662Z,91.71
2022-10-01T02:15:21.499Z,93.3
2022-10-01T02:16:21.484Z,93.67
2022-10-01T02:17:21.131Z,97.12
2022-10-01T02:18:21.453Z,98.24
2022-10-01T02:19:22.197Z,99.34
2022-10-01T02:20:21.453Z,100
2022-10-01T02:21:21.124Z,100
2022-10-01T02:22:21.275Z,100
2022-10-01T02:23:21.342Z,100
2022-10-01T02:24:21.138Z,100
2022-10-01T02:25:21.141Z,100
2022-10-01T02:26:21.144Z,100
2022-10-01T02:27:21.121Z,100
2022-10-01T02:28:21.229Z,100
2022-10-01T02:29:21.217Z,100
2022-10-01T02:30:21.171Z,100
2022-10-01T02:31:21.293Z,100
2022-10-01T02:32:21.124Z,100
2022-10-01T02:33:21.145Z,100
2022-10-01T02:34:22.133Z,100
2022-10-01T02:35:21.422Z,100
2022-10-01T02:36:21.142Z,100
2022-10-01T02:37:21.354Z,100
2022-10-01T02:38:21.313Z,100
2022-10-01T02:39:21.137Z,100
2022-10-01T02:40:21.230Z,100
2022-10-01T02:41:21.125Z,100
2022-10-01T02:42:21.116Z,100
2022-10-01T02:43:21.144Z,100
2022-10-01T02:44:21.154Z,100
2022-10-01T02:45:21.114Z,100
2022-10-01T02:46:21.169Z,100
2022-10-01T02:47:21.120Z,100
2022-10-01T02:48:21.129Z,100
2022-10-01T02:49:21.128Z,100
2022-10-01T02:50:21.137Z,100
2022-10-01T02:51:21.145Z,100
2022-10-01T02:52:21.187Z,100
2022-10-01T02:53:21.121Z,100
2022-10-01T02:54:21.109Z,100
2022-10-01T02:55:21.142Z,100
2022-10-01T02:56:21.122Z,100
2022-10-01T02:57:21.114Z,100
2022-10-01T02:58:21.132Z,100
2022-10-01T02:59:21.125Z,100
2022-10-01T03:00:21.125Z,100
2022-10-01T03:01:21.160Z,100
2022-10-01T03:02:21.177Z,100
2022-10-01T03:03:21.143Z,100
2022-10-01T03:04:21.116Z,100
2022-10-01T03:05:21.105Z,100
2022-10-01T03:06:21.121Z,100
2022-10-01T03:07:21.113Z,100
2022-10-01T03:08:21.139Z,100
2022-10-01T03:09:21.125Z,100
2022-10-01T03:10:21.135Z,100
2022-10-01T03:11:21.126Z,100
2022-10-01T03:12:21.317Z,100
2022-10-01T03:13:21.150Z,100
2022-10-01T03:14:21.119Z,100
2022-10-01T03:15:21.115Z,100
2022-10-01T03:16:21.156Z,100
2022-10-01T03:17:21.119Z,100
2022-10-01T03:18:21.134Z,100
2022-10-01T03:19:21.168Z,100
2022-10-01T03:20:21.128Z,100
2022-10-01T03:21:21.116Z,100
2022-10-01T03:22:21.116Z,100
2022-10-01T03:23:21.274Z,100
2022-10-01T03:24:21.209Z,100
2022-10-01T03:25:21.105Z,100
2022-10-01T03:26:21.122Z,100
2022-10-01T03:27:21.111Z,100
2022-10-01T03:28:21.244Z,100
2022-10-01T03:29:21.135Z,100
2022-10-01T03:30:21.114Z,100
2022-10-01T03:31:21.161Z,100
2022-10-01T03:32:21.124Z,100
2022-10-01T03:33:21.214Z,100
2022-10-01T03:34:21.178Z,100
2022-10-01T03:35:21.204Z,100
2022-10-01T03:36:21.137Z,100
2022-10-01T03:37:21.115Z,100
2022-10-01T03:38:21.111Z,100
2022-10-01T03:39:21.150Z,100
2022-10-01T03:40:21.324Z,100
2022-10-01T03:41:21.101Z,100
2022-10-01T03:42:21.181Z,100
2022-10-01T03:43:21.407Z,100
2022-10-01T03:44:21.386Z,100
2022-10-01T03:45:21.748Z,100
2022-10-01T03:46:21.279Z,100
2022-10-01T03:47:21.537Z,100
2022-10-01T03:48:21.459Z,100
2022-10-01T03:49:22.269Z,100
2022-10-01T03:50:22.574Z,100
2022-10-01T03:51:22.743Z,100
2022-10-01T03:52:22.178Z,100
2022-10-01T03:53:22.461Z,100
2022-10-01T03:54:21.729Z,100
2022-10-01T03:55:21.135Z,100
2022-10-01T03:56:21.935Z,100
2022-10-01T03:57:21.116Z,100
2022-10-01T03:58:21.113Z,100
2022-10-01T03:59:21.129Z,100
2022-10-01T04:00:21.132Z,100
2022-10-01T04:01:21.165Z,100
2022-10-01T04:02:21.276Z,100
2022-10-01T04:03:21.134Z,100
2022-10-01T04:04:21.119Z,100
2022-10-01T04:05:21.143Z,100
2022-10-01T04:06:21.254Z,100
2022-10-01T04:07:21.366Z,100
2022-10-01T04:08:25.139Z,100
2022-10-01T04:09:21.110Z,100
2022-10-01T04:10:21.109Z,100
2022-10-01T04:11:21.115Z,100
2022-10-01T04:12:21.102Z,100
2022-10-01T04:13:21.117Z,100
2022-10-01T04:14:21.097Z,100
2022-10-01T04:15:21.131Z,100
2022-10-01T04:16:21.254Z,100
2022-10-01T04:17:21.257Z,100
2022-10-01T04:18:21.164Z,100
2022-10-01T04:19:21.228Z,100
2022-10-01T04:20:21.112Z,100
2022-10-01T04:21:21.112Z,100
2022-10-01T04:22:21.107Z,100
2022-10-01T04:23:21.127Z,100
2022-10-01T04:24:21.114Z,100
2022-10-01T04:25:21.111Z,100
2022-10-01T04:26:21.110Z,100
2022-10-01T04:27:21.127Z,100
2022-10-01T04:28:21.300Z,100
2022-10-01T04:29:21.119Z,100
2022-10-01T04:30:21.169Z,100
2022-10-01T04:31:21.185Z,100
2022-10-01T04:32:21.110Z,100
2022-10-01T04:33:21.121Z,100
2022-10-01T04:34:21.113Z,100
2022-10-01T04:35:21.161Z,100
2022-10-01T04:36:21.128Z,100
2022-10-01T04:37:21.110Z,100
2022-10-01T04:38:21.118Z,100
2022-10-01T04:39:21.113Z,100
2022-10-01T04:40:21.131Z,100
2022-10-01T04:41:21.243Z,100
2022-10-01T04:42:21.111Z,100
2022-10-01T04:43:21.117Z,100
2022-10-01T04:44:21.104Z,100
2022-10-01T04:45:21.113Z,100
2022-10-01T04:46:21.183Z,100
2022-10-01T04:47:21.400Z,100
2022-10-01T04:48:21.211Z,100
2022-10-01T04:49:21.160Z,100
2022-10-01T04:50:21.304Z,100
2022-10-01T04:51:21.312Z,100
2022-10-01T04:52:21.419Z,100
2022-10-01T04:53:21.513Z,100
2022-10-01T04:54:21.417Z,100
2022-10-01T04:55:21.120Z,100
2022-10-01T04:56:21.108Z,100
2022-10-01T04:57:21.225Z,100
2022-10-01T04:58:21.213Z,100
2022-10-01T04:59:21.533Z,100
2022-10-01T05:00:21.670Z,100
2022-10-01T05:01:22.303Z,100
2022-10-01T05:02:22.602Z,100
2022-10-01T05:03:21.959Z,100
2022-10-01T05:04:21.939Z,100
2022-10-01T05:05:21.890Z,100
2022-10-01T05:06:21.954Z,100
2022-10-01T05:07:21.957Z,100
2022-10-01T05:08:21.801Z,100
2022-10-01T05:09:21.415Z,100
2022-10-01T05:10:21.106Z,100
2022-10-01T05:11:21.158Z,100
2022-10-01T05:12:25.766Z,100
2022-10-01T05:13:21.241Z,100
2022-10-01T05:14:21.398Z,100
2022-10-01T05:15:21.227Z,100
2022-10-01T05:16:21.254Z,100
2022-10-01T05:17:21.220Z,100
2022-10-01T05:18:21.503Z,100
2022-10-01T05:19:21.718Z,100
2022-10-01T05:20:21.272Z,100
2022-10-01T05:21:21.282Z,100
2022-10-01T05:22:21.690Z,100
2022-10-01T05:23:21.520Z,100
2022-10-01T05:24:21.946Z,100
2022-10-01T05:25:21.519Z,100
2022-10-01T05:26:21.661Z,100
2022-10-01T05:27:21.684Z,100
2022-10-01T05:28:24.762Z,100
2022-10-01T05:29:21.209Z,100
2022-10-01T05:30:21.488Z,100
2022-10-01T05:31:21.655Z,100
2022-10-01T05:32:21.346Z,100
2022-10-01T05:33:21.635Z,100
2022-10-01T05:34:21.673Z,100
2022-10-01T05:35:21.392Z,100
2022-10-01T05:36:21.118Z,100
2022-10-01T05:37:21.323Z,100
2022-10-01T05:38:21.474Z,100
2022-10-01T05:39:21.137Z,100
2022-10-01T05:40:21.157Z,100
2022-10-01T05:41:21.150Z,100
2022-10-01T05:42:21.174Z,100
2022-10-01T05:43:21.147Z,100
2022-10-01T05:44:21.237Z,100
2022-10-01T05:45:21.213Z,100
2022-10-01T05:46:21.361Z,100
2022-10-01T05:47:21.224Z,100
2022-10-01T05:48:21.278Z,100
2022-10-01T05:49:21.345Z,100
2022-10-01T05:50:21.148Z,100
2022-10-01T05:51:21.296Z,100
2022-10-01T05:52:21.437Z,100
2022-10-01T05:53:21.139Z,100
2022-10-01T05:54:21.155Z,100
2022-10-01T05:55:21.159Z,100
2022-10-01T05:56:21.171Z,100
2022-10-01T05:57:21.190Z,100
2022-10-01T05:58:21.154Z,100
2022-10-01T05:59:21.151Z,100
2022-10-01T06:00:21.149Z,100
2022-10-01T06:01:21.145Z,100
2022-10-01T06:02:21.224Z,100
2022-10-01T06:03:21.226Z,100
2022-10-01T06:04:21.155Z,100
2022-10-01T06:05:21.149Z,100
2022-10-01T06:06:21.182Z,100
2022-10-01T06:07:21.175Z,100
2022-10-01T06:08:21.161Z,100
2022-10-01T06:09:21.196Z,100
2022-10-01T06:10:21.150Z,100
2022-10-01T06:11:21.164Z,100
2022-10-01T06:12:22.190Z,100
2022-10-01T06:13:21.181Z,100
2022-10-01T06:14:21.179Z,100
2022-10-01T06:15:21.173Z,100
2022-10-01T06:16:21.182Z,100
2022-10-01T06:17:21.163Z,100
2022-10-01T06:18:21.183Z,100
2022-10-01T06:19:21.155Z,100
2022-10-01T06:20:21.385Z,100
2022-10-01T06:21:21.172Z,100
2022-10-01T06:22:21.161Z,100
2022-10-01T06:23:21.167Z,100
2022-10-01T06:24:21.178Z,100
2022-10-01T06:25:21.164Z,100
2022-10-01T06:26:21.162Z,100
2022-10-01T06:27:21.173Z,100
2022-10-01T06:28:21.195Z,100
2022-10-01T06:29:21.178Z,100
2022-10-01T06:30:21.184Z,100
2022-10-01T06:31:21.480Z,100
2022-10-01T06:32:21.186Z,100
2022-10-01T06:33:21.173Z,100
2022-10-01T06:34:21.225Z,100
2022-10-01T06:35:21.178Z,100
2022-10-01T06:36:21.171Z,100
2022-10-01T06:37:21.180Z,100
2022-10-01T06:38:21.198Z,100
2022-10-01T06:39:21.170Z,100
2022-10-01T06:40:21.175Z,100
2022-10-01T06:41:21.229Z,100
2022-10-01T06:42:21.196Z,100
2022-10-01T06:43:21.220Z,100
2022-10-01T06:44:21.170Z,100
2022-10-01T06:45:21.196Z,100
2022-10-01T06:46:21.279Z,100
2022-10-01T06:47:21.175Z,100
2022-10-01T06:48:21.160Z,100
2022-10-01T06:49:21.170Z,100
2022-10-01T06:50:21.177Z,100
2022-10-01T06:51:21.195Z,100
2022-10-01T06:52:21.154Z,100
2022-10-01T06:53:21.192Z,100
2022-10-01T06:54:21.331Z,100
2022-10-01T06:55:21.184Z,100
2022-10-01T06:56:21.171Z,100
2022-10-01T06:57:21.182Z,100
2022-10-01T06:58:21.219Z,100
2022-10-01T06:59:21.173Z,100
2022-10-01T07:00:21.397Z,100
2022-10-01T07:01:21.224Z,100
2022-10-01T07:02:21.387Z,100
2022-10-01T07:03:21.602Z,100
2022-10-01T07:04:21.407Z,100
2022-10-01T07:05:21.268Z,100
2022-10-01T07:06:21.369Z,100
2022-10-01T07:07:21.263Z,100
2022-10-01T07:08:21.498Z,100
2022-10-01T07:09:21.747Z,100
2022-10-01T07:10:21.839Z,100
2022-10-01T07:11:21.452Z,100
2022-10-01T07:12:21.189Z,100
2022-10-01T07:13:21.234Z,100
2022-10-01T07:14:21.206Z,100
2022-10-01T07:15:21.188Z,100
2022-10-01T07:16:21.242Z,100
2022-10-01T07:17:21.201Z,100
2022-10-01T07:18:21.186Z,100
2022-10-01T07:19:21.192Z,100
2022-10-01T07:20:21.201Z,100
2022-10-01T07:21:21.189Z,100
2022-10-01T07:22:21.172Z,100
2022-10-01T07:23:21.198Z,100
2022-10-01T07:24:21.201Z,100
2022-10-01T07:25:21.206Z,100
2022-10-01T07:26:21.208Z,100
2022-10-01T07:27:21.260Z,100
2022-10-01T07:28:21.453Z,100
2022-10-01T07:29:21.183Z,100
2022-10-01T07:30:21.170Z,100
2022-10-01T07:31:21.217Z,100
2022-10-01T07:32:21.210Z,100
2022-10-01T07:33:21.203Z,100
2022-10-01T07:34:21.189Z,100
2022-10-01T07:35:21.192Z,100
2022-10-01T07:36:21.194Z,100
2022-10-01T07:37:21.191Z,100
2022-10-01T07:38:21.222Z,100
2022-10-01T07:39:21.208Z,100
2022-10-01T07:40:21.336Z,100
2022-10-01T07:41:21.200Z,100
2022-10-01T07:42:21.207Z,100
2022-10-01T07:43:21.203Z,100
2022-10-01T07:44:21.200Z,100
2022-10-01T07:45:21.193Z,100
2022-10-01T07:46:21.348Z,100
2022-10-01T07:47:21.218Z,100
2022-10-01T07:48:21.194Z,100
2022-10-01T07:49:21.243Z,100
2022-10-01T07:50:21.233Z,100
2022-10-01T07:51:21.454Z,100
2022-10-01T07:52:21.209Z,100
2022-10-01T07:53:21.245Z,100
2022-10-01T07:54:21.215Z,100
2022-10-01T07:55:21.219Z,100
2022-10-01T07:56:21.246Z,100
2022-10-01T07:57:21.205Z,100
2022-10-01T07:58:21.207Z,100
2022-10-01T07:59:21.228Z,100
2022-10-01T08:00:21.226Z,100
2022-10-01T08:01:21.338Z,100
2022-10-01T08:02:21.501Z,100
2022-10-01T08:03:21.338Z,100
2022-10-01T08:04:21.412Z,100
2022-10-01T08:05:21.318Z,100
2022-10-01T08:06:26.683Z,100
2022-10-01T08:07:21.450Z,100
2022-10-01T08:08:21.675Z,100
2022-10-01T08:09:22.375Z,100
2022-10-01T08:10:22.412Z,100
2022-10-01T08:11:21.686Z,100
2022-10-01T08:12:22.566Z,100
2022-10-01T08:13:22.366Z,100
2022-10-01T08:14:22.395Z,100
2022-10-01T08:15:21.709Z,100
2022-10-01T08:16:21.577Z,100
2022-10-01T08:17:21.229Z,100
2022-10-01T08:18:21.230Z,100
2022-10-01T08:19:21.226Z,100
2022-10-01T08:20:21.219Z,100
2022-10-01T08:21:21.241Z,100
2022-10-01T08:22:21.257Z,100
2022-10-01T08:23:21.216Z,100
2022-10-01T08:24:21.344Z,100
2022-10-01T08:25:21.214Z,100
2022-10-01T08:26:21.235Z,100
2022-10-01T08:27:21.227Z,100
2022-10-01T08:28:21.281Z,100
2022-10-01T08:29:21.237Z,100
2022-10-01T08:30:21.304Z,100
2022-10-01T08:31:21.534Z,100
2022-10-01T08:32:21.343Z,100
2022-10-01T08:33:21.438Z,100
2022-10-01T08:34:21.759Z,100
2022-10-01T08:35:21.294Z,100
2022-10-01T08:36:21.492Z,100
2022-10-01T08:37:21.775Z,100
2022-10-01T08:38:21.458Z,100
2022-10-01T08:39:21.262Z,100
2022-10-01T08:40:21.518Z,100
2022-10-01T08:41:24.679Z,100
2022-10-01T08:42:21.270Z,100
2022-10-01T08:43:21.481Z,100
2022-10-01T08:44:21.782Z,100
2022-10-01T08:45:21.554Z,100
2022-10-01T08:46:22.062Z,100
2022-10-01T08:47:21.961Z,100
2022-10-01T08:48:21.852Z,100
2022-10-01T08:49:21.632Z,100
2022-10-01T08:50:21.439Z,100
2022-10-01T08:51:21.572Z,100
2022-10-01T08:52:21.249Z,100
2022-10-01T08:53:21.249Z,100
2022-10-01T08:54:21.343Z,100
2022-10-01T08:55:21.260Z,100
2022-10-01T08:56:21.257Z,100
2022-10-01T08:57:21.280Z,100
2022-10-01T08:58:21.528Z,100
2022-10-01T08:59:27.275Z,100
2022-10-01T09:00:21.242Z,100
2022-10-01T09:01:21.286Z,100
2022-10-01T09:02:21.327Z,100
2022-10-01T09:03:21.336Z,100
2022-10-01T09:04:21.401Z,100
2022-10-01T09:05:21.309Z,100
2022-10-01T09:06:21.319Z,100
2022-10-01T09:07:21.636Z,100
2022-10-01T09:08:21.287Z,100
2022-10-01T09:09:21.483Z,100
2022-10-01T09:10:21.261Z,100
2022-10-01T09:11:21.275Z,100
2022-10-01T09:12:21.264Z,100
2022-10-01T09:13:21.264Z,100
2022-10-01T09:14:21.296Z,100
2022-10-01T09:15:21.247Z,100
2022-10-01T09:16:21.308Z,100
2022-10-01T09:17:21.271Z,100
2022-10-01T09:18:21.261Z,100
2022-10-01T09:19:21.280Z,100
2022-10-01T09:20:21.277Z,100
2022-10-01T09:21:21.388Z,100
2022-10-01T09:22:21.253Z,100
2022-10-01T09:23:21.265Z,100
2022-10-01T09:24:21.250Z,100
2022-10-01T09:25:21.271Z,100
2022-10-01T09:26:27.341Z,100
2022-10-01T09:27:21.259Z,100
2022-10-01T09:28:21.355Z,100
2022-10-01T09:29:21.279Z,100
2022-10-01T09:30:21.280Z,100
2022-10-01T09:31:21.336Z,100
2022-10-01T09:32:21.400Z,100
2022-10-01T09:33:21.273Z,100
2022-10-01T09:34:21.269Z,100
2022-10-01T09:35:21.276Z,100
2022-10-01T09:36:21.270Z,100
2022-10-01T09:37:21.271Z,100
2022-10-01T09:38:21.286Z,100
2022-10-01T09:39:21.278Z,100
2022-10-01T09:40:21.294Z,100
2022-10-01T09:41:21.299Z,100
2022-10-01T09:42:21.318Z,100
2022-10-01T09:43:21.293Z,100
2022-10-01T09:44:21.290Z,100
2022-10-01T09:45:21.274Z,100
2022-10-01T09:46:21.302Z,100
2022-10-01T09:47:21.279Z,100
2022-10-01T09:48:21.267Z,100
2022-10-01T09:49:21.286Z,100
2022-10-01T09:50:21.290Z,100
2022-10-01T09:51:21.312Z,100
2022-10-01T09:52:21.273Z,100
2022-10-01T09:53:21.303Z,100
2022-10-01T09:54:21.303Z,100
2022-10-01T09:55:21.482Z,100
2022-10-01T09:56:21.292Z,100
2022-10-01T09:57:21.305Z,100
2022-10-01T09:58:21.290Z,100
2022-10-01T09:59:21.283Z,100
2022-10-01T10:00:21.324Z,100
2022-10-01T10:01:21.292Z,100
2022-10-01T10:02:21.381Z,100
2022-10-01T10:03:21.445Z,100
2022-10-01T10:04:22.319Z,100
2022-10-01T10:05:21.303Z,100
2022-10-01T10:06:21.296Z,100
2022-10-01T10:07:21.378Z,100
2022-10-01T10:08:21.295Z,100
2022-10-01T10:09:21.292Z,100
2022-10-01T10:10:27.321Z,100
2022-10-01T10:11:21.288Z,100
2022-10-01T10:12:21.300Z,100
2022-10-01T10:13:21.442Z,100
2022-10-01T10:14:21.304Z,100
2022-10-01T10:15:22.545Z,100
2022-10-01T10:16:21.774Z,100
2022-10-01T10:17:22.711Z,100
2022-10-01T10:18:25.839Z,100
2022-10-01T10:19:21.825Z,100
2022-10-01T10:20:22.068Z,100
2022-10-01T10:21:22.247Z,100
2022-10-01T10:22:21.799Z,100
2022-10-01T10:23:22.009Z,100
2022-10-01T10:24:22.243Z,100
2022-10-01T10:25:21.622Z,100
2022-10-01T10:26:21.348Z,100
2022-10-01T10:27:21.312Z,100
2022-10-01T10:28:21.560Z,100
2022-10-01T10:29:21.304Z,100
2022-10-01T10:30:21.311Z,100
2022-10-01T10:31:21.403Z,100
2022-10-01T10:32:21.313Z,100
2022-10-01T10:33:21.302Z,100
2022-10-01T10:34:21.330Z,100
2022-10-01T10:35:21.333Z,100
2022-10-01T10:36:21.316Z,100
2022-10-01T10:37:21.316Z,100
2022-10-01T10:38:21.342Z,100
2022-10-01T10:39:21.312Z,100
2022-10-01T10:40:23.615Z,100
2022-10-01T10:41:21.315Z,100
2022-10-01T10:42:21.321Z,100
2022-10-01T10:43:21.313Z,100
2022-10-01T10:44:21.320Z,100
2022-10-01T10:45:21.331Z,100
2022-10-01T10:46:21.377Z,100
2022-10-01T10:47:21.309Z,100
2022-10-01T10:48:21.334Z,100
2022-10-01T10:49:21.359Z,100
2022-10-01T10:50:21.324Z,100
2022-10-01T10:51:21.315Z,100
2022-10-01T10:52:21.327Z,100
2022-10-01T10:53:21.325Z,100
2022-10-01T10:54:21.332Z,100
2022-10-01T10:55:21.320Z,100
2022-10-01T10:56:21.318Z,100
2022-10-01T10:57:21.343Z,100
2022-10-01T10:58:21.321Z,100
2022-10-01T10:59:21.361Z,100
2022-10-01T11:00:21.327Z,100
2022-10-01T11:01:21.611Z,100
2022-10-01T11:02:21.389Z,100
2022-10-01T11:03:21.314Z,100
2022-10-01T11:04:21.331Z,100
2022-10-01T11:05:21.336Z,100
2022-10-01T11:06:21.334Z,100
2022-10-01T11:07:21.311Z,100
2022-10-01T11:08:21.346Z,100
2022-10-01T11:09:21.310Z,100
2022-10-01T11:10:21.328Z,100
2022-10-01T11:11:21.456Z,100
2022-10-01T11:12:21.287Z,100
2022-10-01T11:13:21.399Z,100
2022-10-01T11:14:24.638Z,100
2022-10-01T11:15:21.899Z,100
2022-10-01T11:16:21.465Z,100
2022-10-01T11:17:21.468Z,100
2022-10-01T11:18:21.751Z,100
2022-10-01T11:19:21.615Z,100
2022-10-01T11:20:24.602Z,100
2022-10-01T11:21:22.056Z,100
2022-10-01T11:22:22.426Z,100
2022-10-01T11:23:21.726Z,100
2022-10-01T11:24:21.951Z,100
2022-10-01T11:25:21.335Z,100
2022-10-01T11:26:21.347Z,100
2022-10-01T11:27:21.337Z,100
2022-10-01T11:28:21.437Z,100
2022-10-01T11:29:21.351Z,100
2022-10-01T11:30:21.349Z,100
2022-10-01T11:31:21.411Z,100
2022-10-01T11:32:21.371Z,100
2022-10-01T11:33:21.547Z,100
2022-10-01T11:34:21.324Z,100
2022-10-01T11:35:21.353Z,100
2022-10-01T11:36:21.350Z,100
2022-10-01T11:37:21.345Z,100
2022-10-01T11:38:21.346Z,100
2022-10-01T11:39:21.328Z,100
2022-10-01T11:40:21.418Z,100
2022-10-01T11:41:21.442Z,100
2022-10-01T11:42:21.388Z,100
2022-10-01T11:43:21.435Z,100
2022-10-01T11:44:21.375Z,100
2022-10-01T11:45:21.458Z,100
2022-10-01T11:46:21.400Z,100
2022-10-01T11:47:21.462Z,100
2022-10-01T11:48:21.500Z,100
2022-10-01T11:49:21.389Z,100
2022-10-01T11:50:21.491Z,100
2022-10-01T11:51:21.601Z,100
2022-10-01T11:52:21.841Z,100
2022-10-01T11:53:22.038Z,100
2022-10-01T11:54:22.398Z,100
2022-10-01T11:55:22.855Z,100
2022-10-01T11:56:22.124Z,100
2022-10-01T11:57:21.664Z,100
2022-10-01T11:58:21.492Z,100
2022-10-01T11:59:22.245Z,100
2022-10-01T12:00:27.315Z,100
2022-10-01T12:01:21.543Z,100
2022-10-01T12:02:21.607Z,100
2022-10-01T12:03:21.797Z,100
2022-10-01T12:04:21.504Z,100
2022-10-01T12:05:21.806Z,100
2022-10-01T12:06:31.764Z,100
2022-10-01T12:07:22.281Z,100
2022-10-01T12:08:21.385Z,100
2022-10-01T12:09:21.356Z,100
2022-10-01T12:10:21.365Z,100
2022-10-01T12:11:21.376Z,100
2022-10-01T12:12:21.370Z,100
2022-10-01T12:13:21.373Z,100
2022-10-01T12:14:21.389Z,100
2022-10-01T12:15:21.384Z,100
2022-10-01T12:16:21.410Z,100
2022-10-01T12:17:21.376Z,100
2022-10-01T12:18:21.394Z,100
2022-10-01T12:19:21.383Z,100
2022-10-01T12:20:21.395Z,100
2022-10-01T12:21:21.385Z,100
2022-10-01T12:22:25.424Z,100
2022-10-01T12:23:21.131Z,100
2022-10-01T12:24:21.381Z,100
2022-10-01T12:25:21.380Z,100
2022-10-01T12:26:21.392Z,100
2022-10-01T12:27:21.391Z,100
2022-10-01T12:28:21.491Z,100
2022-10-01T12:29:21.376Z,100
2022-10-01T12:30:21.383Z,100
2022-10-01T12:31:21.430Z,100
2022-10-01T12:32:21.381Z,100
2022-10-01T12:33:21.395Z,100
2022-10-01T12:34:21.387Z,100
2022-10-01T12:35:21.397Z,100
2022-10-01T12:36:21.386Z,100
2022-10-01T12:37:21.387Z,100
2022-10-01T12:38:21.417Z,100
2022-10-01T12:39:21.383Z,100
2022-10-01T12:40:21.597Z,100
2022-10-01T12:41:21.407Z,100
2022-10-01T12:42:21.395Z,100
2022-10-01T12:43:21.390Z,100
2022-10-01T12:44:21.394Z,100
2022-10-01T12:45:21.400Z,100
2022-10-01T12:46:21.442Z,100
2022-10-01T12:47:21.406Z,100
2022-10-01T12:48:21.393Z,100
2022-10-01T12:49:21.392Z,100
2022-10-01T12:50:21.416Z,100
2022-10-01T12:51:21.388Z,100
2022-10-01T12:52:21.392Z,100
2022-10-01T12:53:21.410Z,100
2022-10-01T12:54:21.401Z,100
2022-10-01T12:55:21.410Z,100
2022-10-01T12:56:21.374Z,100
2022-10-01T12:57:21.401Z,100
2022-10-01T12:58:21.393Z,100
2022-10-01T12:59:21.383Z,100
2022-10-01T13:00:21.415Z,100
2022-10-01T13:01:21.479Z,100
2022-10-01T13:02:21.439Z,100
2022-10-01T13:03:21.401Z,100
2022-10-01T13:04:21.396Z,100
2022-10-01T13:05:21.399Z,100
2022-10-01T13:06:21.426Z,100
2022-10-01T13:07:21.407Z,100
2022-10-01T13:08:21.411Z,100
2022-10-01T13:09:21.405Z,100
2022-10-01T13:10:21.429Z,100
2022-10-01T13:11:21.417Z,100
2022-10-01T13:12:21.616Z,100
2022-10-01T13:13:21.427Z,100
2022-10-01T13:14:21.428Z,100
2022-10-01T13:15:21.397Z,100
2022-10-01T13:16:21.458Z,100
2022-10-01T13:17:21.413Z,100
2022-10-01T13:18:21.382Z,100
2022-10-01T13:19:21.430Z,100
2022-10-01T13:20:21.404Z,100
2022-10-01T13:21:21.684Z,100
2022-10-01T13:22:21.400Z,100
2022-10-01T13:23:21.475Z,100
2022-10-01T13:24:21.425Z,100
2022-10-01T13:25:21.420Z,100
2022-10-01T13:26:21.410Z,100
2022-10-01T13:27:21.432Z,100
2022-10-01T13:28:21.455Z,100
2022-10-01T13:29:21.565Z,100
2022-10-01T13:30:21.472Z,100
2022-10-01T13:31:21.456Z,100
2022-10-01T13:32:22.795Z,100
2022-10-01T13:33:22.189Z,100
2022-10-01T13:34:22.477Z,100
2022-10-01T13:35:22.487Z,100
2022-10-01T13:36:21.971Z,100
2022-10-01T13:37:21.965Z,100